sensor_id;sensor_type;location;lat;lon;timestamp;pressure;altitude;pressure_sealevel;temperature;humidity
21960;BME280;11144;43.030;25.108;2022-10-16T00:00:29;100044.47;;;7.11;100.00
21960;BME280;11144;43.030;25.108;2022-10-16T00:02:01;100044.50;;;7.04;100.00
21960;BME280;11144;43.030;25.108;2022-10-16T00:03:35;100047.16;;;7.01;100.00
21960;BME280;11144;43.030;25.108;2022-10-16T00:05:07;100042.78;;;7.03;100.00
21960;BME280;11144;43.030;25.108;2022-10-16T00:06:42;100041.88;;;7.06;100.00
21960;BME280;11144;43.030;25.108;2022-10-16T00:08:15;100041.81;;;7.11;100.00
21960;BME280;11144;43.030;25.108;2022-10-16T00:09:47;100047.91;;;7.13;100.00
21960;BME280;11144;43.030;25.108;2022-10-16T00:11:22;100052.28;;;7.15;100.00
21960;BME280;11144;43.030;25.108;2022-10-16T00:12:56;100047.94;;;7.09;100.00
21960;BME280;11144;43.030;25.108;2022-10-16T00:14:29;100048.00;;;7.07;100.00
21960;BME280;11144;43.030;25.108;2022-10-16T00:16:03;100048.88;;;7.04;100.00
21960;BME280;11144;43.030;25.108;2022-10-16T00:17:35;100056.75;;;7.05;100.00
21960;BME280;11144;43.030;25.108;2022-10-16T00:19:09;100060.28;;;7.04;100.00
21960;BME280;11144;43.030;25.108;2022-10-16T00:20:43;100058.56;;;7.03;100.00
21960;BME280;11144;43.030;25.108;2022-10-16T00:22:18;100069.03;;;7.07;100.00
21960;BME280;11144;43.030;25.108;2022-10-16T00:23:51;100081.28;;;7.07;100.00
21960;BME280;11144;43.030;25.108;2022-10-16T00:25:24;100060.25;;;7.07;100.00
21960;BME280;11144;43.030;25.108;2022-10-16T00:26:57;100068.16;;;7.06;100.00
21960;BME280;11144;43.030;25.108;2022-10-16T00:28:30;100067.34;;;6.99;100.00
21960;BME280;11144;43.030;25.108;2022-10-16T00:30:05;100073.53;;;6.95;100.00
21960;BME280;11144;43.030;25.108;2022-10-16T00:31:40;100066.53;;;6.91;100.00
21960;BME280;11144;43.030;25.108;2022-10-16T00:33:13;100070.13;;;6.84;100.00
21960;BME280;11144;43.030;25.108;2022-10-16T00:34:46;100072.00;;;6.70;100.00
21960;BME280;11144;43.030;25.108;2022-10-16T00:36:22;100079.91;;;6.67;100.00
21960;BME280;11144;43.030;25.108;2022-10-16T00:37:57;100079.91;;;6.66;100.00
21960;BME280;11144;43.030;25.108;2022-10-16T00:39:30;100083.44;;;6.63;100.00
21960;BME280;11144;43.030;25.108;2022-10-16T00:41:03;100081.69;;;6.62;100.00
21960;BME280;11144;43.030;25.108;2022-10-16T00:42:37;100079.13;;;6.53;100.00
21960;BME280;11144;43.030;25.108;2022-10-16T00:44:42;100091.38;;;6.54;100.00
21960;BME280;11144;43.030;25.108;2022-10-16T00:46:20;100098.41;;;6.54;100.00
21960;BME280;11144;43.030;25.108;2022-10-16T00:47:55;100101.03;;;6.51;100.00
21960;BME280;11144;43.030;25.108;2022-10-16T00:49:29;100095.81;;;6.46;100.00
21960;BME280;11144;43.030;25.108;2022-10-16T00:51:01;100097.59;;;6.47;100.00
21960;BME280;11144;43.030;25.108;2022-10-16T00:52:35;100088.84;;;6.42;100.00
21960;BME280;11144;43.030;25.108;2022-10-16T00:54:13;100099.34;;;6.42;100.00
21960;BME280;11144;43.030;25.108;2022-10-16T00:55:47;100104.59;;;6.44;100.00
21960;BME280;11144;43.030;25.108;2022-10-16T00:57:20;100101.13;;;6.40;100.00
21960;BME280;11144;43.030;25.108;2022-10-16T00:58:53;100104.66;;;6.36;100.00
21960;BME280;11144;43.030;25.108;2022-10-16T01:00:27;100103.78;;;6.36;100.00
21960;BME280;11144;43.030;25.108;2022-10-16T01:02:00;100103.78;;;6.34;100.00
21960;BME280;11144;43.030;25.108;2022-10-16T01:03:36;100100.28;;;6.34;100.00
21960;BME280;11144;43.030;25.108;2022-10-16T01:05:09;100116.00;;;6.38;100.00
21960;BME280;11144;43.030;25.108;2022-10-16T01:06:47;100104.59;;;6.42;100.00
21960;BME280;11144;43.030;25.108;2022-10-16T01:08:29;100107.22;;;6.45;100.00
21960;BME280;11144;43.030;25.108;2022-10-16T01:10:16;100114.19;;;6.49;100.00
21960;BME280;11144;43.030;25.108;2022-10-16T01:12:02;100120.31;;;6.51;100.00
21960;BME280;11144;43.030;25.108;2022-10-16T01:13:41;100125.56;;;6.53;100.00
21960;BME280;11144;43.030;25.108;2022-10-16T01:15:20;100121.16;;;6.53;100.00
21960;BME280;11144;43.030;25.108;2022-10-16T01:17:00;100116.75;;;6.58;100.00
21960;BME280;11144;43.030;25.108;2022-10-16T01:18:39;100112.34;;;6.60;100.00
21960;BME280;11144;43.030;25.108;2022-10-16T01:20:20;100114.97;;;6.60;100.00
21960;BME280;11144;43.030;25.108;2022-10-16T01:21:58;100104.47;;;6.63;100.00
21960;BME280;11144;43.030;25.108;2022-10-16T01:23:42;100110.53;;;6.68;100.00
21960;BME280;11144;43.030;25.108;2022-10-16T01:25:25;100102.63;;;6.71;100.00
21960;BME280;11144;43.030;25.108;2022-10-16T01:27:12;100109.59;;;6.75;100.00
21960;BME280;11144;43.030;25.108;2022-10-16T01:28:51;100107.88;;;6.73;100.00
21960;BME280;11144;43.030;25.108;2022-10-16T01:30:29;100109.63;;;6.69;100.00
21960;BME280;11144;43.030;25.108;2022-10-16T01:32:10;100105.28;;;6.68;100.00
21960;BME280;11144;43.030;25.108;2022-10-16T01:33:51;100104.47;;;6.60;100.00
21960;BME280;11144;43.030;25.108;2022-10-16T01:35:30;100114.09;;;6.60;100.00
21960;BME280;11144;43.030;25.108;2022-10-16T01:37:07;100116.78;;;6.55;100.00
21960;BME280;11144;43.030;25.108;2022-10-16T01:38:43;100113.34;;;6.47;100.00
21960;BME280;11144;43.030;25.108;2022-10-16T01:40:20;100126.44;;;6.49;100.00
21960;BME280;11144;43.030;25.108;2022-10-16T01:42:01;100116.81;;;6.49;100.00
21960;BME280;11144;43.030;25.108;2022-10-16T01:43:40;100122.97;;;6.47;100.00
21960;BME280;11144;43.030;25.108;2022-10-16T01:45:17;100132.66;;;6.40;100.00
21960;BME280;11144;43.030;25.108;2022-10-16T01:46:52;100125.72;;;6.27;100.00
21960;BME280;11144;43.030;25.108;2022-10-16T01:48:26;100127.50;;;6.19;100.00
21960;BME280;11144;43.030;25.108;2022-10-16T01:50:04;100131.00;;;6.20;100.00
21960;BME280;11144;43.030;25.108;2022-10-16T01:51:38;100132.75;;;6.22;100.00
21960;BME280;11144;43.030;25.108;2022-10-16T01:53:13;100130.97;;;6.21;100.00
21960;BME280;11144;43.030;25.108;2022-10-16T01:54:50;100134.50;;;6.20;100.00
21960;BME280;11144;43.030;25.108;2022-10-16T01:56:25;100132.75;;;6.25;100.00
21960;BME280;11144;43.030;25.108;2022-10-16T01:57:59;100121.34;;;6.28;100.00
21960;BME280;11144;43.030;25.108;2022-10-16T01:59:37;100128.31;;;6.30;100.00
21960;BME280;11144;43.030;25.108;2022-10-16T02:01:13;100130.94;;;6.30;100.00
21960;BME280;11144;43.030;25.108;2022-10-16T02:02:49;100135.31;;;6.30;100.00
21960;BME280;11144;43.030;25.108;2022-10-16T02:04:28;100130.94;;;6.30;100.00
21960;BME280;11144;43.030;25.108;2022-10-16T02:06:02;100129.16;;;6.32;100.00
21960;BME280;11144;43.030;25.108;2022-10-16T02:07:35;100130.91;;;6.36;100.00
21960;BME280;11144;43.030;25.108;2022-10-16T02:09:09;100134.41;;;6.38;100.00
21960;BME280;11144;43.030;25.108;2022-10-16T02:10:42;100136.13;;;6.39;100.00
21960;BME280;11144;43.030;25.108;2022-10-16T02:12:21;100132.66;;;6.40;100.00
21960;BME280;11144;43.030;25.108;2022-10-16T02:14:00;100131.75;;;6.40;100.00
21960;BME280;11144;43.030;25.108;2022-10-16T02:15:36;100137.84;;;6.45;100.00
21960;BME280;11144;43.030;25.108;2022-10-16T02:17:13;100136.09;;;6.45;100.00
21960;BME280;11144;43.030;25.108;2022-10-16T02:18:47;100141.34;;;6.48;100.00
21960;BME280;11144;43.030;25.108;2022-10-16T02:20:25;100138.72;;;6.48;100.00
21960;BME280;11144;43.030;25.108;2022-10-16T02:22:02;100137.84;;;6.46;100.00
21960;BME280;11144;43.030;25.108;2022-10-16T02:23:41;100141.34;;;6.48;100.00
21960;BME280;11144;43.030;25.108;2022-10-16T02:25:23;100143.97;;;6.50;100.00
21960;BME280;11144;43.030;25.108;2022-10-16T02:27:03;100135.22;;;6.46;100.00
21960;BME280;11144;43.030;25.108;2022-10-16T02:28:42;100137.00;;;6.43;100.00
21960;BME280;11144;43.030;25.108;2022-10-16T02:30:23;100138.75;;;6.41;100.00
21960;BME280;11144;43.030;25.108;2022-10-16T02:32:02;100144.00;;;6.44;100.00
21960;BME280;11144;43.030;25.108;2022-10-16T02:33:38;100151.88;;;6.45;100.00
21960;BME280;11144;43.030;25.108;2022-10-16T02:35:14;100150.97;;;6.48;100.00
21960;BME280;11144;43.030;25.108;2022-10-16T02:36:50;100150.06;;;6.49;100.00
21960;BME280;11144;43.030;25.108;2022-10-16T02:38:24;100155.38;;;6.47;100.00
21960;BME280;11144;43.030;25.108;2022-10-16T02:39:58;100155.38;;;6.47;100.00
21960;BME280;11144;43.030;25.108;2022-10-16T02:41:31;100146.59;;;6.45;100.00
21960;BME280;11144;43.030;25.108;2022-10-16T02:43:06;100158.84;;;6.46;100.00
21960;BME280;11144;43.030;25.108;2022-10-16T02:44:39;100157.09;;;6.51;100.00
21960;BME280;11144;43.030;25.108;2022-10-16T02:46:13;100167.53;;;6.54;100.00
21960;BME280;11144;43.030;25.108;2022-10-16T02:47:47;100160.56;;;6.53;100.00
21960;BME280;11144;43.030;25.108;2022-10-16T02:49:21;100160.56;;;6.50;100.00
21960;BME280;11144;43.030;25.108;2022-10-16T02:50:54;100157.13;;;6.42;100.00
21960;BME280;11144;43.030;25.108;2022-10-16T02:52:28;100149.25;;;6.41;100.00
21960;BME280;11144;43.030;25.108;2022-10-16T02:54:01;100157.13;;;6.45;100.00
21960;BME280;11144;43.030;25.108;2022-10-16T02:55:35;100156.19;;;6.51;100.00
21960;BME280;11144;43.030;25.108;2022-10-16T02:57:07;100164.06;;;6.52;100.00
21960;BME280;11144;43.030;25.108;2022-10-16T02:58:40;100165.81;;;6.53;100.00
21960;BME280;11144;43.030;25.108;2022-10-16T03:00:16;100169.34;;;6.52;100.00
21960;BME280;11144;43.030;25.108;2022-10-16T03:01:48;100165.81;;;6.53;100.00
21960;BME280;11144;43.030;25.108;2022-10-16T03:03:23;100165.81;;;6.53;100.00
21960;BME280;11144;43.030;25.108;2022-10-16T03:04:57;100158.81;;;6.52;100.00
21960;BME280;11144;43.030;25.108;2022-10-16T03:06:31;100166.72;;;6.48;100.00
21960;BME280;11144;43.030;25.108;2022-10-16T03:08:04;100160.63;;;6.47;100.00
21960;BME280;11144;43.030;25.108;2022-10-16T03:09:37;100170.25;;;6.47;100.00
21960;BME280;11144;43.030;25.108;2022-10-16T03:11:09;100167.63;;;6.45;100.00
21960;BME280;11144;43.030;25.108;2022-10-16T03:12:43;100170.22;;;6.50;100.00
21960;BME280;11144;43.030;25.108;2022-10-16T03:14:15;100172.84;;;6.51;100.00
21960;BME280;11144;43.030;25.108;2022-10-16T03:15:48;100165.81;;;6.53;100.00
21960;BME280;11144;43.030;25.108;2022-10-16T03:17:22;100164.97;;;6.51;100.00
21960;BME280;11144;43.030;25.108;2022-10-16T03:18:57;100167.53;;;6.57;100.00
21960;BME280;11144;43.030;25.108;2022-10-16T03:20:30;100178.03;;;6.57;100.00
21960;BME280;11144;43.030;25.108;2022-10-16T03:22:04;100177.19;;;6.57;100.00
21960;BME280;11144;43.030;25.108;2022-10-16T03:23:37;100171.94;;;6.55;100.00
21960;BME280;11144;43.030;25.108;2022-10-16T03:25:09;100177.16;;;6.60;100.00
21960;BME280;11144;43.030;25.108;2022-10-16T03:26:42;100177.16;;;6.60;100.00
21960;BME280;11144;43.030;25.108;2022-10-16T03:28:16;100182.47;;;6.55;100.00
21960;BME280;11144;43.030;25.108;2022-10-16T03:29:49;100186.81;;;6.56;100.00
21960;BME280;11144;43.030;25.108;2022-10-16T03:31:21;100187.69;;;6.57;100.00
21960;BME280;11144;43.030;25.108;2022-10-16T03:32:55;100186.81;;;6.59;100.00
21960;BME280;11144;43.030;25.108;2022-10-16T03:34:28;100183.25;;;6.65;100.00
21960;BME280;11144;43.030;25.108;2022-10-16T03:36:02;100181.47;;;6.68;100.00
21960;BME280;11144;43.030;25.108;2022-10-16T03:37:35;100194.63;;;6.70;100.00
21960;BME280;11144;43.030;25.108;2022-10-16T03:39:09;100188.47;;;6.72;100.00
21960;BME280;11144;43.030;25.108;2022-10-16T03:40:42;100188.44;;;6.75;100.00
21960;BME280;11144;43.030;25.108;2022-10-16T03:42:14;100186.69;;;6.76;100.00
21960;BME280;11144;43.030;25.108;2022-10-16T03:43:47;100185.81;;;6.75;100.00
21960;BME280;11144;43.030;25.108;2022-10-16T03:45:21;100199.84;;;6.74;100.00
21960;BME280;11144;43.030;25.108;2022-10-16T03:46:54;100190.19;;;6.75;100.00
21960;BME280;11144;43.030;25.108;2022-10-16T03:48:28;100198.94;;;6.75;100.00
21960;BME280;11144;43.030;25.108;2022-10-16T03:50:04;100197.25;;;6.68;100.00
21960;BME280;11144;43.030;25.108;2022-10-16T03:51:38;100192.03;;;6.62;100.00
21960;BME280;11144;43.030;25.108;2022-10-16T03:53:11;100188.53;;;6.63;100.00
21960;BME280;11144;43.030;25.108;2022-10-16T03:54:45;100199.94;;;6.62;100.00
21960;BME280;11144;43.030;25.108;2022-10-16T03:56:18;100199.06;;;6.60;100.00
21960;BME280;11144;43.030;25.108;2022-10-16T03:57:51;100188.56;;;6.57;100.00
21960;BME280;11144;43.030;25.108;2022-10-16T03:59:24;100199.06;;;6.57;100.00
21960;BME280;11144;43.030;25.108;2022-10-16T04:00:57;100189.44;;;6.58;100.00
21960;BME280;11144;43.030;25.108;2022-10-16T04:02:30;100199.06;;;6.59;100.00
21960;BME280;11144;43.030;25.108;2022-10-16T04:04:03;100193.81;;;6.54;100.00
21960;BME280;11144;43.030;25.108;2022-10-16T04:05:38;100192.09;;;6.53;100.00
21960;BME280;11144;43.030;25.108;2022-10-16T04:07:12;100188.63;;;6.51;100.00
21960;BME280;11144;43.030;25.108;2022-10-16T04:08:44;100195.63;;;6.49;100.00
21960;BME280;11144;43.030;25.108;2022-10-16T04:10:17;100194.72;;;6.49;100.00
21960;BME280;11144;43.030;25.108;2022-10-16T04:11:50;100197.34;;;6.50;100.00
21960;BME280;11144;43.030;25.108;2022-10-16T04:13:24;100196.50;;;6.51;100.00
21960;BME280;11144;43.030;25.108;2022-10-16T04:14:57;100205.22;;;6.53;100.00
21960;BME280;11144;43.030;25.108;2022-10-16T04:16:30;100203.50;;;6.51;100.00
21960;BME280;11144;43.030;25.108;2022-10-16T04:18:04;100193.88;;;6.51;100.00
21960;BME280;11144;43.030;25.108;2022-10-16T04:19:36;100200.84;;;6.52;100.00
21960;BME280;11144;43.030;25.108;2022-10-16T04:21:11;100205.22;;;6.55;100.00
21960;BME280;11144;43.030;25.108;2022-10-16T04:22:44;100209.56;;;6.57;100.00
21960;BME280;11144;43.030;25.108;2022-10-16T04:24:18;100200.84;;;6.58;100.00
21960;BME280;11144;43.030;25.108;2022-10-16T04:25:51;100204.31;;;6.57;100.00
21960;BME280;11144;43.030;25.108;2022-10-16T04:27:25;100200.84;;;6.55;100.00
21960;BME280;11144;43.030;25.108;2022-10-16T04:28:59;100210.47;;;6.56;100.00
21960;BME280;11144;43.030;25.108;2022-10-16T04:30:32;100206.09;;;6.58;100.00
21960;BME280;11144;43.030;25.108;2022-10-16T04:32:07;100213.06;;;6.59;100.00
21960;BME280;11144;43.030;25.108;2022-10-16T04:33:42;100220.06;;;6.57;100.00
21960;BME280;11144;43.030;25.108;2022-10-16T04:35:16;100216.59;;;6.58;100.00
21960;BME280;11144;43.030;25.108;2022-10-16T04:36:50;100209.59;;;6.54;100.00
21960;BME280;11144;43.030;25.108;2022-10-16T04:38:24;100209.63;;;6.48;100.00
21960;BME280;11144;43.030;25.108;2022-10-16T04:39:57;100211.44;;;6.40;100.00
21960;BME280;11144;43.030;25.108;2022-10-16T04:41:30;100221.94;;;6.37;100.00
21960;BME280;11144;43.030;25.108;2022-10-16T04:43:04;100219.31;;;6.36;100.00
21960;BME280;11144;43.030;25.108;2022-10-16T04:44:37;100224.59;;;6.34;100.00
21960;BME280;11144;43.030;25.108;2022-10-16T04:46:11;100222.78;;;6.39;100.00
21960;BME280;11144;43.030;25.108;2022-10-16T04:47:44;100221.94;;;6.40;100.00
21960;BME280;11144;43.030;25.108;2022-10-16T04:49:17;100225.41;;;6.45;100.00
21960;BME280;11144;43.030;25.108;2022-10-16T04:50:50;100222.78;;;6.47;100.00
21960;BME280;11144;43.030;25.108;2022-10-16T04:52:27;100220.16;;;6.48;100.00
21960;BME280;11144;43.030;25.108;2022-10-16T04:54:01;100218.41;;;6.47;100.00
21960;BME280;11144;43.030;25.108;2022-10-16T04:55:34;100219.25;;;6.46;100.00
21960;BME280;11144;43.030;25.108;2022-10-16T04:57:08;100214.88;;;6.48;100.00
21960;BME280;11144;43.030;25.108;2022-10-16T04:58:41;100222.78;;;6.45;100.00
21960;BME280;11144;43.030;25.108;2022-10-16T05:00:13;100218.44;;;6.41;100.00
21960;BME280;11144;43.030;25.108;2022-10-16T05:01:47;100221.06;;;6.34;100.00
21960;BME280;11144;43.030;25.108;2022-10-16T05:03:19;100225.47;;;6.30;100.00
21960;BME280;11144;43.030;25.108;2022-10-16T05:04:52;100214.97;;;6.33;100.00
21960;BME280;11144;43.030;25.108;2022-10-16T05:06:26;100228.94;;;6.32;100.00
21960;BME280;11144;43.030;25.108;2022-10-16T05:08:00;100196.69;;;6.08;100.00
21960;BME280;11144;43.030;25.108;2022-10-16T05:09:34;100235.97;;;6.30;100.00
21960;BME280;11144;43.030;25.108;2022-10-16T05:11:07;100232.50;;;6.25;100.00
21960;BME280;11144;43.030;25.108;2022-10-16T05:12:41;100241.25;;;6.24;100.00
21960;BME280;11144;43.030;25.108;2022-10-16T05:14:14;100231.63;;;6.20;100.00
21960;BME280;11144;43.030;25.108;2022-10-16T05:15:47;100236.00;;;6.24;100.00
21960;BME280;11144;43.030;25.108;2022-10-16T05:17:21;100234.25;;;6.20;100.00
21960;BME280;11144;43.030;25.108;2022-10-16T05:18:55;100246.50;;;6.24;100.00
21960;BME280;11144;43.030;25.108;2022-10-16T05:20:48;100234.28;;;6.17;100.00
21960;BME280;11144;43.030;25.108;2022-10-16T05:22:21;100249.13;;;6.27;100.00
21960;BME280;11144;43.030;25.108;2022-10-16T05:23:56;100250.84;;;6.33;100.00
21960;BME280;11144;43.030;25.108;2022-10-16T05:25:29;100249.97;;;6.35;100.00
21960;BME280;11144;43.030;25.108;2022-10-16T05:27:02;100247.34;;;6.34;100.00
21960;BME280;11144;43.030;25.108;2022-10-16T05:28:35;100249.97;;;6.32;100.00
21960;BME280;11144;43.030;25.108;2022-10-16T05:30:09;100249.97;;;6.35;100.00
21960;BME280;11144;43.030;25.108;2022-10-16T05:31:43;100244.69;;;6.38;100.00
21960;BME280;11144;43.030;25.108;2022-10-16T05:33:16;100254.34;;;6.36;100.00
21960;BME280;11144;43.030;25.108;2022-10-16T05:34:50;100256.94;;;6.39;100.00
21960;BME280;11144;43.030;25.108;2022-10-16T05:36:23;100261.34;;;6.40;100.00
21960;BME280;11144;43.030;25.108;2022-10-16T05:37:56;100260.44;;;6.44;100.00
21960;BME280;11144;43.030;25.108;2022-10-16T05:39:30;100257.81;;;6.40;100.00
21960;BME280;11144;43.030;25.108;2022-10-16T05:41:04;100269.16;;;6.49;100.00
21960;BME280;11144;43.030;25.108;2022-10-16T05:42:37;100275.28;;;6.53;100.00
21960;BME280;11144;43.030;25.108;2022-10-16T05:44:11;100267.38;;;6.57;100.00
21960;BME280;11144;43.030;25.108;2022-10-16T05:45:44;100271.72;;;6.63;100.00
21960;BME280;11144;43.030;25.108;2022-10-16T05:47:16;100275.25;;;6.62;100.00
21960;BME280;11144;43.030;25.108;2022-10-16T05:48:51;100271.72;;;6.60;100.00
21960;BME280;11144;43.030;25.108;2022-10-16T05:50:24;100276.13;;;6.59;100.00
21960;BME280;11144;43.030;25.108;2022-10-16T05:51:58;100273.50;;;6.58;100.00
21960;BME280;11144;43.030;25.108;2022-10-16T05:53:32;100272.63;;;6.60;100.00
21960;BME280;11144;43.030;25.108;2022-10-16T05:55:08;100274.34;;;6.67;100.00
21960;BME280;11144;43.030;25.108;2022-10-16T05:56:42;100262.13;;;6.57;100.00
21960;BME280;11144;43.030;25.108;2022-10-16T05:58:15;100289.22;;;6.67;100.00
21960;BME280;11144;43.030;25.108;2022-10-16T05:59:48;100288.38;;;6.66;100.00
21960;BME280;11144;43.030;25.108;2022-10-16T06:01:20;100292.75;;;6.64;100.00
21960;BME280;11144;43.030;25.108;2022-10-16T06:02:56;100295.34;;;6.70;100.00
21960;BME280;11144;43.030;25.108;2022-10-16T06:04:29;100293.56;;;6.75;100.00
21960;BME280;11144;43.030;25.108;2022-10-16T06:06:08;100286.56;;;6.77;100.00
21960;BME280;11144;43.030;25.108;2022-10-16T06:07:43;100297.91;;;6.82;100.00
21960;BME280;11144;43.030;25.108;2022-10-16T06:09:16;100304.00;;;6.90;100.00
21960;BME280;11144;43.030;25.108;2022-10-16T06:11:00;100298.72;;;6.96;100.00
21960;BME280;11144;43.030;25.108;2022-10-16T06:12:33;100310.94;;;7.03;100.00
21960;BME280;11144;43.030;25.108;2022-10-16T06:14:08;100307.41;;;7.07;100.00
21960;BME280;11144;43.030;25.108;2022-10-16T06:15:42;100298.63;;;7.12;100.00
21960;BME280;11144;43.030;25.108;2022-10-16T06:17:15;100307.41;;;7.09;100.00
21960;BME280;11144;43.030;25.108;2022-10-16T06:18:50;100307.34;;;7.17;100.00
21960;BME280;11144;43.030;25.108;2022-10-16T06:20:24;100310.78;;;7.25;100.00
21960;BME280;11144;43.030;25.108;2022-10-16T06:21:57;100310.78;;;7.28;100.00
21960;BME280;11144;43.030;25.108;2022-10-16T06:23:30;100309.00;;;7.33;100.00
21960;BME280;11144;43.030;25.108;2022-10-16T06:25:03;100322.16;;;7.33;100.00
21960;BME280;11144;43.030;25.108;2022-10-16T06:26:38;100319.53;;;7.33;100.00
21960;BME280;11144;43.030;25.108;2022-10-16T06:28:13;100317.72;;;7.38;100.00
21960;BME280;11144;43.030;25.108;2022-10-16T06:29:47;100324.69;;;7.45;100.00
21960;BME280;11144;43.030;25.108;2022-10-16T06:31:20;100328.16;;;7.47;100.00
21960;BME280;11144;43.030;25.108;2022-10-16T06:32:53;100326.38;;;7.55;100.00
21960;BME280;11144;43.030;25.108;2022-10-16T06:34:27;100329.81;;;7.66;100.00
21960;BME280;11144;43.030;25.108;2022-10-16T06:36:00;100332.34;;;7.75;100.00
21960;BME280;11144;43.030;25.108;2022-10-16T06:37:33;100335.88;;;7.75;100.00
21960;BME280;11144;43.030;25.108;2022-10-16T06:39:07;100331.44;;;7.79;100.00
21960;BME280;11144;43.030;25.108;2022-10-16T06:40:40;100339.22;;;7.91;100.00
21960;BME280;11144;43.030;25.108;2022-10-16T06:42:14;100336.53;;;7.97;100.00
21960;BME280;11144;43.030;25.108;2022-10-16T06:43:47;100347.03;;;8.03;100.00
21960;BME280;11144;43.030;25.108;2022-10-16T06:45:19;100341.72;;;8.06;100.00
21960;BME280;11144;43.030;25.108;2022-10-16T06:46:53;100336.41;;;8.12;100.00
21960;BME280;11144;43.030;25.108;2022-10-16T06:48:27;100342.50;;;8.15;100.00
21960;BME280;11144;43.030;25.108;2022-10-16T06:50:01;100351.25;;;8.19;100.00
21960;BME280;11144;43.030;25.108;2022-10-16T06:51:33;100339.81;;;8.23;100.00
21960;BME280;11144;43.030;25.108;2022-10-16T06:53:13;100341.38;;;8.42;100.00
21960;BME280;11144;43.030;25.108;2022-10-16T06:54:47;100348.31;;;8.52;100.00
21960;BME280;11144;43.030;25.108;2022-10-16T06:56:21;100341.19;;;8.60;100.00
21960;BME280;11144;43.030;25.108;2022-10-16T06:57:56;100353.34;;;8.73;100.00
21960;BME280;11144;43.030;25.108;2022-10-16T06:59:29;100350.63;;;8.77;100.00
21960;BME280;11144;43.030;25.108;2022-10-16T07:01:03;100342.66;;;8.83;100.00
21960;BME280;11144;43.030;25.108;2022-10-16T07:02:36;100349.66;;;8.86;100.00
21960;BME280;11144;43.030;25.108;2022-10-16T07:04:10;100339.06;;;8.89;100.00
21960;BME280;11144;43.030;25.108;2022-10-16T07:05:43;100344.28;;;8.95;100.00
21960;BME280;11144;43.030;25.108;2022-10-16T07:07:16;100337.22;;;8.94;100.00
21960;BME280;11144;43.030;25.108;2022-10-16T07:08:50;100344.22;;;8.98;100.00
21960;BME280;11144;43.030;25.108;2022-10-16T07:10:24;100340.50;;;9.14;100.00
21960;BME280;11144;43.030;25.108;2022-10-16T07:11:57;100343.03;;;9.20;100.00
21960;BME280;11144;43.030;25.108;2022-10-16T07:13:34;100347.47;;;9.18;100.00
21960;BME280;11144;43.030;25.108;2022-10-16T07:15:08;100329.00;;;9.18;100.00
21960;BME280;11144;43.030;25.108;2022-10-16T07:16:42;100344.63;;;9.33;100.00
21960;BME280;11144;43.030;25.108;2022-10-16T07:18:15;100344.47;;;9.42;100.00
21960;BME280;11144;43.030;25.108;2022-10-16T07:19:48;100346.78;;;9.63;100.00
21960;BME280;11144;43.030;25.108;2022-10-16T07:21:26;100344.06;;;9.69;100.00
21960;BME280;11144;43.030;25.108;2022-10-16T07:23:00;100350.09;;;9.77;100.00
21960;BME280;11144;43.030;25.108;2022-10-16T07:24:33;100342.03;;;9.83;100.00
21960;BME280;11144;43.030;25.108;2022-10-16T07:26:07;100343.78;;;9.87;100.00
21960;BME280;11144;43.030;25.108;2022-10-16T07:27:41;100346.19;;;9.99;100.00
21960;BME280;11144;43.030;25.108;2022-10-16T07:29:17;100342.59;;;10.06;100.00
21960;BME280;11144;43.030;25.108;2022-10-16T07:30:51;100351.06;;;10.23;100.00
21960;BME280;11144;43.030;25.108;2022-10-16T07:32:23;100349.00;;;10.40;100.00
21960;BME280;11144;43.030;25.108;2022-10-16T07:33:58;100337.25;;;10.55;100.00
21960;BME280;11144;43.030;25.108;2022-10-16T07:35:31;100345.63;;;10.78;100.00
21960;BME280;11144;43.030;25.108;2022-10-16T07:37:04;100344.84;;;11.14;100.00
21960;BME280;11144;43.030;25.108;2022-10-16T07:38:37;100348.13;;;11.64;100.00
21960;BME280;11144;43.030;25.108;2022-10-16T07:40:10;100352.09;;;12.17;100.00
21960;BME280;11144;43.030;25.108;2022-10-16T07:41:43;100341.66;;;12.43;100.00
21960;BME280;11144;43.030;25.108;2022-10-16T07:43:17;100351.72;;;12.94;100.00
21960;BME280;11144;43.030;25.108;2022-10-16T07:44:51;100337.94;;;13.41;100.00
21960;BME280;11144;43.030;25.108;2022-10-16T07:46:24;100336.75;;;13.77;100.00
21960;BME280;11144;43.030;25.108;2022-10-16T07:47:58;100330.22;;;14.14;100.00
21960;BME280;11144;43.030;25.108;2022-10-16T07:49:31;100323.59;;;14.51;100.00
21960;BME280;11144;43.030;25.108;2022-10-16T07:51:06;100328.13;;;14.97;100.00
21960;BME280;11144;43.030;25.108;2022-10-16T07:52:38;100327.63;;;15.32;100.00
21960;BME280;11144;43.030;25.108;2022-10-16T07:54:12;100325.09;;;15.52;100.00
21960;BME280;11144;43.030;25.108;2022-10-16T07:55:45;100316.06;;;15.56;100.00
21960;BME280;11144;43.030;25.108;2022-10-16T07:57:17;100311.59;;;15.78;100.00
21960;BME280;11144;43.030;25.108;2022-10-16T07:58:52;100311.78;;;16.15;100.00
21960;BME280;11144;43.030;25.108;2022-10-16T08:00:26;100312.72;;;16.34;100.00
21960;BME280;11144;43.030;25.108;2022-10-16T08:02:00;100311.41;;;16.64;100.00
21960;BME280;11144;43.030;25.108;2022-10-16T08:03:33;100306.59;;;16.72;100.00
21960;BME280;11144;43.030;25.108;2022-10-16T08:05:07;100307.88;;;17.02;100.00
21960;BME280;11144;43.030;25.108;2022-10-16T08:06:41;100309.81;;;17.17;100.00